Time;durP1;ratioP1;P1;durP2;ratioP2;P2;SDS_P1;SDS_P2;PMS_P1;PMS_P2;Temp;Humidity;BMP_temperature;BMP_pressure;BME280_temperature;BME280_humidity;BME280_pressure;Samples;Min_cycle;Max_cycle;Signal;HPM_P1;HPM_P2
2024/03/01 00:00:02;;;;;;;41.17;18.63;;;3.60;99.90;;;;;;5046574;28;20497;-70
2024/03/01 00:02:32;;;;;;;35.57;19.53;;;3.60;99.90;;;;;;5049701;28;20444;-70
2024/03/01 00:04:59;;;;;;;42.33;19.93;;;3.60;99.90;;;;;;5058085;28;20463;-70
2024/03/01 00:07:28;;;;;;;36.43;19.17;;;3.60;99.90;;;;;;5068569;28;20463;-70
2024/03/01 00:09:56;;;;;;;39.27;20.63;;;3.60;99.90;;;;;;5063887;28;20518;-70
2024/03/01 00:12:24;;;;;;;45.67;20.47;;;3.60;99.90;;;;;;5065294;28;21113;-69
2024/03/01 00:14:52;;;;;;;38.00;18.67;;;3.50;99.90;;;;;;5070799;28;20501;-70
2024/03/01 00:17:20;;;;;;;35.70;18.30;;;3.50;99.90;;;;;;5070644;28;21293;-69
2024/03/01 00:19:49;;;;;;;41.33;21.10;;;3.50;99.90;;;;;;5064967;28;20518;-69
2024/03/01 00:22:18;;;;;;;37.93;19.57;;;3.40;99.90;;;;;;5069541;28;20522;-70
2024/03/01 00:24:46;;;;;;;34.77;18.53;;;3.40;99.90;;;;;;5070105;28;20491;-70
2024/03/01 00:27:14;;;;;;;39.40;21.53;;;3.50;99.90;;;;;;5069801;28;20492;-69
2024/03/01 00:29:41;;;;;;;42.27;19.50;;;3.50;99.90;;;;;;5069938;28;21258;-70
2024/03/01 00:32:09;;;;;;;41.17;19.07;;;3.60;99.90;;;;;;5055595;28;20460;-69
2024/03/01 00:34:37;;;;;;;37.83;20.90;;;3.60;99.90;;;;;;5049611;28;20509;-70
2024/03/01 00:37:07;;;;;;;40.80;18.90;;;3.70;99.90;;;;;;5051142;28;20483;-70
2024/03/01 00:39:35;;;;;;;43.87;20.93;;;3.80;99.90;;;;;;5049375;28;21042;-70
2024/03/01 00:42:03;;;;;;;35.87;17.77;;;4.00;99.90;;;;;;5049734;28;20546;-71
2024/03/01 00:44:31;;;;;;;40.40;18.77;;;3.90;99.90;;;;;;5063377;28;20863;-70
2024/03/01 00:46:59;;;;;;;36.23;19.40;;;3.80;99.90;;;;;;5069469;28;20598;-70
2024/03/01 00:49:27;;;;;;;38.13;18.43;;;3.80;99.90;;;;;;5069736;28;20451;-70
2024/03/01 00:51:55;;;;;;;37.40;18.20;;;3.90;99.90;;;;;;5069485;28;20448;-70
2024/03/01 00:54:24;;;;;;;39.63;19.33;;;3.90;99.90;;;;;;5062128;28;20514;-70
2024/03/01 00:56:52;;;;;;;35.77;17.70;;;3.90;99.90;;;;;;5049460;28;20487;-70
2024/03/01 00:59:23;;;;;;;41.77;18.83;;;3.90;99.90;;;;;;5052476;28;21115;-70
2024/03/01 01:01:51;;;;;;;36.77;18.13;;;3.80;99.90;;;;;;5069211;28;20443;-71
2024/03/01 01:04:19;;;;;;;38.33;18.17;;;3.80;99.90;;;;;;5069505;28;20477;-70
2024/03/01 01:06:47;;;;;;;38.80;20.17;;;3.80;99.90;;;;;;5069014;28;20542;-70
2024/03/01 01:09:17;;;;;;;36.53;17.90;;;3.70;99.90;;;;;;5069049;28;21061;-70
2024/03/01 01:11:47;;;;;;;41.00;18.37;;;3.70;99.90;;;;;;5058340;28;20544;-70
2024/03/01 01:14:15;;;;;;;36.10;18.20;;;3.70;99.90;;;;;;5049154;28;20459;-70
2024/03/01 01:16:42;;;;;;;37.13;17.20;;;3.70;99.90;;;;;;5062250;28;20577;-70
2024/03/01 01:19:10;;;;;;;34.80;17.50;;;3.80;99.90;;;;;;5069105;28;20453;-70
2024/03/01 01:21:38;;;;;;;43.40;18.40;;;3.80;99.90;;;;;;5068825;28;21008;-70
2024/03/01 01:24:06;;;;;;;37.80;20.20;;;3.50;99.90;;;;;;5064344;28;20971;-71
2024/03/01 01:26:34;;;;;;;38.80;20.40;;;3.50;99.90;;;;;;5068478;28;20479;-70
2024/03/01 01:29:03;;;;;;;39.00;19.60;;;3.60;99.90;;;;;;5068820;28;20474;-70
2024/03/01 01:31:31;;;;;;;37.27;20.77;;;3.60;99.90;;;;;;5068209;28;20898;-70
2024/03/01 01:33:59;;;;;;;39.87;19.70;;;3.40;99.90;;;;;;5056977;28;20459;-70
2024/03/01 01:36:27;;;;;;;41.33;20.70;;;3.40;99.90;;;;;;5048868;28;20847;-70
2024/03/01 01:38:56;;;;;;;41.17;19.37;;;3.30;99.90;;;;;;5048671;28;20481;-70
2024/03/01 01:41:24;;;;;;;39.87;20.20;;;3.40;99.90;;;;;;5053508;28;20447;-68
2024/03/01 01:43:52;;;;;;;39.63;20.13;;;3.40;99.90;;;;;;5068624;28;20490;-70
2024/03/01 01:46:22;;;;;;;37.87;19.97;;;3.40;99.90;;;;;;5068724;28;20451;-71
2024/03/01 01:48:50;;;;;;;42.33;21.07;;;3.40;99.90;;;;;;5065019;28;20486;-71
2024/03/01 01:51:19;;;;;;;40.30;22.07;;;3.50;99.90;;;;;;5048759;28;20457;-70
2024/03/01 01:53:47;;;;;;;39.27;18.90;;;3.50;99.90;;;;;;5048708;28;20448;-72
2024/03/01 01:56:15;;;;;;;47.03;22.43;;;3.70;99.90;;;;;;5048976;28;20454;-69
2024/03/01 01:58:46;;;;;;;38.90;18.80;;;3.70;99.90;;;;;;5063821;28;20634;-68
2024/03/01 02:01:15;;;;;;;34.73;18.67;;;3.80;99.90;;;;;;5068067;28;20451;-70
2024/03/01 02:03:45;;;;;;;38.93;19.93;;;3.90;99.90;;;;;;5068114;28;20769;-69
2024/03/01 02:06:13;;;;;;;41.50;22.00;;;3.90;99.90;;;;;;5068424;28;20439;-70
2024/03/01 02:08:41;;;;;;;49.00;20.77;;;4.00;99.90;;;;;;5066050;28;20510;-70
2024/03/01 02:11:10;;;;;;;40.07;19.80;;;4.20;99.90;;;;;;5067299;28;21040;-69
2024/03/01 02:13:38;;;;;;;36.97;18.37;;;4.20;99.90;;;;;;5059174;28;20448;-69
2024/03/01 02:16:06;;;;;;;41.10;20.67;;;4.10;99.90;;;;;;5059824;28;20448;-70
2024/03/01 02:18:34;;;;;;;39.40;19.33;;;4.10;99.90;;;;;;5065788;28;20975;-70
2024/03/01 02:21:07;;;;;;;51.43;23.37;;;4.20;99.90;;;;;;5068277;28;20855;-70
2024/03/01 02:23:37;;;;;;;41.80;19.50;;;4.20;99.90;;;;;;5059049;28;20442;-70
2024/03/01 02:26:05;;;;;;;38.30;19.40;;;4.20;99.90;;;;;;5047870;28;20610;-70
2024/03/01 02:28:34;;;;;;;38.93;19.80;;;4.20;99.90;;;;;;5055146;28;20522;-70
2024/03/01 02:31:02;;;;;;;38.50;20.33;;;4.20;99.90;;;;;;5068231;28;20926;-70
2024/03/01 02:33:30;;;;;;;36.40;19.37;;;4.20;99.90;;;;;;5068037;28;20546;-68
2024/03/01 02:35:58;;;;;;;41.10;19.43;;;4.20;99.90;;;;;;5061771;28;20852;-70
2024/03/01 02:38:26;;;;;;;38.17;21.20;;;4.30;99.90;;;;;;5067653;28;20471;-69
2024/03/01 02:40:55;;;;;;;37.03;19.57;;;4.20;99.90;;;;;;5068071;28;20453;-70
2024/03/01 02:43:23;;;;;;;41.00;21.13;;;4.10;99.90;;;;;;5067562;28;20448;-70
2024/03/01 02:45:51;;;;;;;35.80;18.90;;;4.10;99.90;;;;;;5067818;28;20483;-69
2024/03/01 02:48:19;;;;;;;42.23;18.40;;;4.10;99.90;;;;;;5067014;28;20520;-69
2024/03/01 02:50:47;;;;;;;31.53;17.97;;;4.00;99.90;;;;;;5048922;28;20589;-70
2024/03/01 02:53:15;;;;;;;39.73;17.70;;;3.90;99.90;;;;;;5048156;28;21116;-70
2024/03/01 02:55:43;;;;;;;36.17;17.87;;;3.80;99.90;;;;;;5048336;28;20440;-71
2024/03/01 02:58:13;;;;;;;40.17;22.67;;;3.80;99.90;;;;;;5047329;28;20555;-70
2024/03/01 03:00:41;;;;;;;40.00;20.60;;;3.70;99.90;;;;;;5059552;28;20451;-69
2024/03/01 03:03:09;;;;;;;38.40;20.23;;;3.70;99.90;;;;;;5052170;28;20477;-69
2024/03/01 03:05:37;;;;;;;41.13;19.97;;;3.80;99.90;;;;;;5067498;28;21024;-70
2024/03/01 03:08:05;;;;;;;41.17;21.23;;;3.80;99.90;;;;;;5067473;28;20479;-70
2024/03/01 03:10:33;;;;;;;39.83;20.43;;;4.00;99.90;;;;;;5067114;28;21044;-70
2024/03/01 03:13:03;;;;;;;39.40;20.00;;;4.00;99.90;;;;;;5067350;28;20806;-70
2024/03/01 03:15:32;;;;;;;43.37;21.80;;;4.00;99.90;;;;;;5067271;28;20573;-69
2024/03/01 03:18:00;;;;;;;37.77;21.03;;;4.00;99.90;;;;;;5058925;28;20551;-70
2024/03/01 03:20:28;;;;;;;42.43;20.90;;;4.00;99.90;;;;;;5067668;28;20446;-70
2024/03/01 03:22:56;;;;;;;39.60;20.30;;;4.10;99.90;;;;;;5066927;28;20819;-71
2024/03/01 03:25:25;;;;;;;45.13;21.77;;;4.10;99.90;;;;;;5067159;28;20488;-70
2024/03/01 03:27:53;;;;;;;39.90;20.00;;;4.20;99.90;;;;;;5067032;28;20456;-70
2024/03/01 03:30:21;;;;;;;40.33;19.37;;;4.20;99.90;;;;;;5061962;28;21198;-70
2024/03/01 03:32:51;;;;;;;37.57;18.50;;;4.30;99.90;;;;;;5056067;28;20472;-70
2024/03/01 03:35:19;;;;;;;43.73;21.87;;;4.30;99.90;;;;;;5047188;28;20773;-70
2024/03/01 03:37:47;;;;;;;36.10;19.50;;;4.30;99.90;;;;;;5056173;28;20496;-70
2024/03/01 03:40:15;;;;;;;36.30;19.40;;;4.20;99.90;;;;;;5070873;28;20472;-71
2024/03/01 03:42:44;;;;;;;37.97;19.40;;;4.20;99.90;;;;;;5070856;28;20454;-70
2024/03/01 03:45:12;;;;;;;47.90;21.30;;;4.30;99.90;;;;;;5067485;28;20863;-70
2024/03/01 03:47:40;;;;;;;41.23;22.30;;;4.20;99.90;;;;;;5070462;28;20854;-70
2024/03/01 03:50:10;;;;;;;41.10;19.90;;;4.10;99.90;;;;;;5070767;28;20957;-70
2024/03/01 03:52:38;;;;;;;39.57;21.20;;;4.10;99.90;;;;;;5070279;28;20535;-71
2024/03/01 03:55:07;;;;;;;39.60;19.50;;;4.10;99.90;;;;;;5070714;28;20531;-71
2024/03/01 03:57:35;;;;;;;43.30;21.10;;;4.00;99.90;;;;;;5070634;28;20471;-70
2024/03/01 04:00:09;;;;;;;47.67;22.07;;;4.00;99.90;;;;;;5070816;28;20466;-70
2024/03/01 04:02:38;;;;;;;42.57;19.67;;;3.90;99.90;;;;;;5070199;28;20430;-70
2024/03/01 04:05:07;;;;;;;43.83;21.37;;;3.90;99.90;;;;;;5070558;28;20479;-70
2024/03/01 04:07:37;;;;;;;39.23;19.43;;;3.90;99.90;;;;;;5070568;28;20462;-71
2024/03/01 04:10:06;;;;;;;37.67;19.50;;;3.90;99.90;;;;;;5070546;28;20499;-70
2024/03/01 04:12:36;;;;;;;36.77;20.10;;;4.00;99.90;;;;;;5070319;28;20447;-70
2024/03/01 04:15:05;;;;;;;40.87;20.70;;;4.10;99.90;;;;;;5066519;28;20555;-69
2024/03/01 04:17:34;;;;;;;42.33;21.20;;;4.10;99.90;;;;;;5057836;28;20460;-70
2024/03/01 04:20:05;;;;;;;37.43;20.70;;;4.10;99.90;;;;;;5050516;28;20500;-70
2024/03/01 04:22:33;;;;;;;39.53;22.13;;;4.20;99.90;;;;;;5050495;28;20543;-70
2024/03/01 04:25:05;;;;;;;44.33;20.37;;;4.20;99.90;;;;;;5050435;28;20441;-69
2024/03/01 04:27:33;;;;;;;39.23;19.63;;;4.30;99.90;;;;;;5054202;28;20556;-69
2024/03/01 04:30:01;;;;;;;37.13;21.13;;;4.40;99.90;;;;;;5058647;28;20445;-69
2024/03/01 04:32:29;;;;;;;38.20;20.80;;;4.40;99.90;;;;;;5051370;28;20458;-70
2024/03/01 04:34:57;;;;;;;36.43;18.33;;;4.50;99.90;;;;;;5070595;28;20459;-69
2024/03/01 04:37:25;;;;;;;45.93;21.30;;;4.50;99.90;;;;;;5070067;28;20465;-70
2024/03/01 04:39:54;;;;;;;46.73;22.03;;;4.60;99.90;;;;;;5067039;28;20454;-70
2024/03/01 04:42:23;;;;;;;47.83;20.30;;;4.60;99.90;;;;;;5049449;28;20441;-69
2024/03/01 04:44:51;;;;;;;47.17;20.27;;;4.60;99.90;;;;;;5050138;28;20450;-69
2024/03/01 04:47:19;;;;;;;36.90;19.07;;;4.60;99.90;;;;;;5049108;28;21056;-70
2024/03/01 04:49:47;;;;;;;39.30;20.43;;;4.50;99.90;;;;;;5049448;28;21222;-70
2024/03/01 04:52:15;;;;;;;44.13;21.57;;;4.50;99.90;;;;;;5058477;28;20466;-70
2024/03/01 04:54:42;;;;;;;43.13;20.63;;;4.60;99.90;;;;;;5050084;28;20470;-71
2024/03/01 04:57:10;;;;;;;34.40;19.20;;;4.70;99.90;;;;;;5060898;28;21341;-70
2024/03/01 04:59:40;;;;;;;41.93;20.10;;;4.70;99.90;;;;;;5060904;28;20459;-70
2024/03/01 05:02:08;;;;;;;33.50;18.27;;;4.60;99.90;;;;;;5061993;28;20525;-70
2024/03/01 05:04:36;;;;;;;43.60;20.87;;;4.60;99.90;;;;;;5069670;28;20544;-71
2024/03/01 05:07:09;;;;;;;36.90;19.40;;;4.60;99.90;;;;;;5062211;28;20481;-70
2024/03/01 05:09:38;;;;;;;53.00;23.13;;;4.70;99.90;;;;;;5069222;28;20456;-70
2024/03/01 05:12:13;;;;;;;37.00;19.57;;;4.60;99.90;;;;;;5061657;28;20545;-71
2024/03/01 05:14:42;;;;;;;40.93;21.13;;;4.50;99.90;;;;;;5068794;28;20479;-70
2024/03/01 05:17:11;;;;;;;41.37;22.27;;;4.50;99.90;;;;;;5051012;28;20561;-70
2024/03/01 05:19:40;;;;;;;42.10;20.10;;;4.50;99.90;;;;;;5068890;28;20950;-70
2024/03/01 05:22:12;;;;;;;47.30;22.57;;;4.40;99.90;;;;;;5065495;28;20450;-70
2024/03/01 05:24:40;;;;;;;36.97;19.50;;;4.40;99.90;;;;;;5069007;28;20438;-71
2024/03/01 05:27:12;;;;;;;41.40;20.00;;;4.40;99.90;;;;;;5061882;28;20486;-73
2024/03/01 05:29:42;;;;;;;38.30;20.27;;;4.40;99.90;;;;;;5068975;28;20468;-69
2024/03/01 05:32:10;;;;;;;46.30;21.67;;;4.40;99.90;;;;;;5068110;28;20541;-70
2024/03/01 05:34:38;;;;;;;45.20;20.07;;;4.40;99.90;;;;;;5054223;28;20462;-70
2024/03/01 05:37:06;;;;;;;41.20;20.67;;;4.50;99.90;;;;;;5062607;28;20451;-71
2024/03/01 05:39:34;;;;;;;39.90;20.80;;;4.60;99.90;;;;;;5066048;28;20499;-71
2024/03/01 05:42:02;;;;;;;40.43;20.23;;;4.60;99.90;;;;;;5067428;28;20439;-70
2024/03/01 05:44:30;;;;;;;39.40;20.43;;;4.60;99.90;;;;;;5069107;28;20445;-70
2024/03/01 05:47:00;;;;;;;41.37;19.57;;;4.70;99.90;;;;;;5068559;28;21064;-70
2024/03/01 05:49:28;;;;;;;39.93;20.20;;;4.60;99.90;;;;;;5067513;28;20943;-70
2024/03/01 05:51:56;;;;;;;45.73;21.80;;;4.60;99.90;;;;;;5068433;28;20454;-70
2024/03/01 05:54:24;;;;;;;36.90;19.87;;;4.60;99.90;;;;;;5068871;28;21222;-70
2024/03/01 05:56:52;;;;;;;44.20;21.13;;;4.70;99.90;;;;;;5068363;28;20466;-70
2024/03/01 05:59:22;;;;;;;40.27;20.70;;;4.80;99.90;;;;;;5067022;28;20446;-71
2024/03/01 06:01:51;;;;;;;37.27;20.20;;;4.80;99.90;;;;;;5050422;28;20505;-71
2024/03/01 06:04:20;;;;;;;39.00;20.77;;;4.80;99.90;;;;;;5049601;28;20527;-71
2024/03/01 06:06:48;;;;;;;36.50;20.37;;;4.90;99.90;;;;;;5067843;28;20580;-70
2024/03/01 06:09:17;;;;;;;39.73;19.90;;;4.80;99.90;;;;;;5067907;28;20981;-71
2024/03/01 06:11:45;;;;;;;47.80;23.70;;;4.90;99.90;;;;;;5067666;28;20455;-71
2024/03/01 06:14:14;;;;;;;49.30;22.33;;;4.90;99.90;;;;;;5068398;28;20481;-71
2024/03/01 06:16:42;;;;;;;41.63;21.77;;;5.00;99.90;;;;;;5068381;28;20463;-70
2024/03/01 06:19:10;;;;;;;40.67;22.30;;;5.00;99.90;;;;;;5068181;28;20447;-70
2024/03/01 06:21:40;;;;;;;43.80;21.37;;;5.10;99.90;;;;;;5068043;28;20513;-71
2024/03/01 06:24:08;;;;;;;46.77;21.57;;;5.10;99.90;;;;;;5068398;28;20441;-71
2024/03/01 06:26:37;;;;;;;35.83;20.37;;;5.10;99.90;;;;;;5059993;28;20516;-71
2024/03/01 06:29:05;;;;;;;38.27;19.53;;;5.00;99.90;;;;;;5048066;28;20539;-71
2024/03/01 06:31:32;;;;;;;39.50;20.50;;;5.10;99.90;;;;;;5047990;28;20453;-72
2024/03/01 06:34:00;;;;;;;41.30;21.90;;;5.00;99.90;;;;;;5048308;28;20465;-71
2024/03/01 06:36:28;;;;;;;43.00;22.20;;;5.10;99.90;;;;;;5047954;28;20452;-71
2024/03/01 06:38:58;;;;;;;44.13;23.20;;;5.20;99.90;;;;;;5053983;28;20457;-70
2024/03/01 06:41:26;;;;;;;43.57;21.97;;;5.40;99.90;;;;;;5067606;28;20534;-71
2024/03/01 06:43:54;;;;;;;45.77;22.90;;;5.30;99.90;;;;;;5067828;28;20443;-70
2024/03/01 06:46:23;;;;;;;43.20;23.17;;;5.10;99.90;;;;;;5067531;28;20450;-71
2024/03/01 06:48:51;;;;;;;45.47;22.97;;;5.20;99.90;;;;;;5067859;28;20454;-71
2024/03/01 06:51:19;;;;;;;41.00;21.40;;;5.30;99.90;;;;;;5067537;28;20483;-71
2024/03/01 06:53:47;;;;;;;41.30;21.43;;;5.30;99.90;;;;;;5066670;28;20567;-72
2024/03/01 06:56:17;;;;;;;39.40;20.77;;;5.30;99.90;;;;;;5050360;28;20529;-69
2024/03/01 06:58:45;;;;;;;43.40;19.63;;;5.30;99.90;;;;;;5065091;28;20466;-72
2024/03/01 07:01:13;;;;;;;36.47;20.43;;;5.40;99.90;;;;;;5063278;28;20466;-70
2024/03/01 07:03:41;;;;;;;38.20;19.10;;;5.50;99.90;;;;;;5066431;28;20447;-69
2024/03/01 07:06:09;;;;;;;41.50;20.13;;;5.60;99.90;;;;;;5066466;28;20443;-71
2024/03/01 07:08:38;;;;;;;41.33;20.67;;;5.70;99.90;;;;;;5066015;28;20544;-71
2024/03/01 07:11:06;;;;;;;39.83;21.03;;;5.70;99.90;;;;;;5058292;28;20461;-71
2024/03/01 07:13:35;;;;;;;40.73;22.50;;;5.80;99.90;;;;;;5058317;28;21206;-71
2024/03/01 07:16:04;;;;;;;38.67;20.70;;;5.80;99.90;;;;;;5067469;28;20432;-72
2024/03/01 07:18:32;;;;;;;39.53;19.80;;;5.80;99.90;;;;;;5067179;28;20470;-71
2024/03/01 07:20:59;;;;;;;34.97;19.37;;;5.90;99.90;;;;;;5067142;28;20450;-70
2024/03/01 07:23:27;;;;;;;41.70;20.57;;;6.10;99.90;;;;;;5067280;28;20503;-70
2024/03/01 07:25:55;;;;;;;41.10;20.27;;;6.20;99.90;;;;;;5065621;28;20459;-70
2024/03/01 07:28:23;;;;;;;39.83;21.50;;;6.30;99.90;;;;;;5066678;28;20533;-71
2024/03/01 07:30:56;;;;;;;39.83;20.80;;;6.50;99.90;;;;;;5066733;28;20450;-72
2024/03/01 07:33:24;;;;;;;35.63;19.17;;;6.60;99.90;;;;;;5063414;28;20481;-72
2024/03/01 07:35:52;;;;;;;38.80;20.40;;;6.80;99.90;;;;;;5066029;28;20453;-72
2024/03/01 07:38:20;;;;;;;38.33;20.57;;;6.70;99.90;;;;;;5065428;28;20538;-72
2024/03/01 07:40:47;;;;;;;37.43;20.47;;;6.80;99.90;;;;;;5065776;28;20443;-71
2024/03/01 07:43:16;;;;;;;37.80;20.50;;;6.80;99.90;;;;;;5065075;28;20447;-72
2024/03/01 07:45:44;;;;;;;45.10;22.73;;;7.00;99.90;;;;;;5063166;28;21124;-71
2024/03/01 07:48:14;;;;;;;45.27;22.60;;;7.10;99.90;;;;;;5064726;28;20558;-71
2024/03/01 07:50:42;;;;;;;39.10;20.93;;;7.30;99.90;;;;;;5064534;28;20440;-72
2024/03/01 07:53:09;;;;;;;39.27;20.13;;;7.40;99.90;;;;;;5057334;28;20467;-71
2024/03/01 07:55:39;;;;;;;39.80;21.93;;;7.50;99.90;;;;;;5063652;28;20445;-71
2024/03/01 07:58:07;;;;;;;39.40;21.40;;;7.70;99.90;;;;;;5063876;28;20448;-71
2024/03/01 08:00:35;;;;;;;40.30;22.33;;;7.80;99.90;;;;;;5066188;28;20446;-71
2024/03/01 08:03:08;;;;;;;38.37;21.20;;;7.90;99.90;;;;;;5057341;28;20446;-71
2024/03/01 08:05:38;;;;;;;37.40;20.60;;;8.00;99.90;;;;;;5051602;28;20448;-72
2024/03/01 08:08:07;;;;;;;35.60;19.93;;;8.10;99.90;;;;;;5045643;28;20548;-71
2024/03/01 08:10:42;;;;;;;39.00;20.57;;;8.40;99.90;;;;;;5050174;28;20951;-71
2024/03/01 08:13:12;;;;;;;39.77;21.10;;;8.50;99.90;;;;;;5058553;28;20464;-72
2024/03/01 08:15:40;;;;;;;38.30;22.17;;;8.70;99.90;;;;;;5066567;28;20437;-71
2024/03/01 08:18:16;;;;;;;34.47;19.73;;;9.00;99.90;;;;;;5057300;28;20453;-71
2024/03/01 08:20:57;;;;;;;34.27;20.10;;;9.30;99.90;;;;;;5067025;28;20439;-72
2024/03/01 08:23:27;;;;;;;35.80;20.80;;;9.40;99.90;;;;;;5069649;28;20446;-71
2024/03/01 08:25:56;;;;;;;38.47;20.50;;;9.60;99.90;;;;;;5070204;28;20456;-71
2024/03/01 08:28:28;;;;;;;35.90;20.07;;;9.60;99.90;;;;;;5069569;28;20514;-72
2024/03/01 08:30:56;;;;;;;41.00;22.07;;;9.60;99.90;;;;;;5070674;28;20450;-71
2024/03/01 08:33:24;;;;;;;37.60;22.17;;;9.60;99.90;;;;;;5069807;28;20445;-71
2024/03/01 08:35:52;;;;;;;37.77;22.00;;;9.70;99.90;;;;;;5060446;28;20996;-71
2024/03/01 08:38:54;;;;;;;37.30;20.80;;;9.80;99.90;;;;;;5050046;28;20580;-72
2024/03/01 08:41:25;;;;;;;38.03;22.30;;;9.90;99.90;;;;;;5047624;28;20737;-72
2024/03/01 08:43:54;;;;;;;33.00;20.47;;;10.00;99.90;;;;;;5050913;28;20829;-70
2024/03/01 08:46:28;;;;;;;37.17;20.50;;;10.00;99.90;;;;;;5050066;28;20448;-72
2024/03/01 08:48:56;;;;;;;34.97;21.63;;;10.00;99.90;;;;;;5055810;28;20876;-72
2024/03/01 08:51:26;;;;;;;35.53;21.10;;;10.10;99.90;;;;;;5069552;28;20459;-71
2024/03/01 08:54:02;;;;;;;32.97;21.40;;;10.10;99.90;;;;;;5070202;28;20448;-71
2024/03/01 08:56:36;;;;;;;36.20;21.93;;;10.10;99.90;;;;;;5070418;28;20452;-71
2024/03/01 08:59:30;;;;;;;37.27;21.47;;;10.00;99.90;;;;;;5058670;28;20475;-71
2024/03/01 09:01:58;;;;;;;35.77;21.27;;;9.80;99.90;;;;;;5049665;28;20452;-71
2024/03/01 09:04:28;;;;;;;33.37;20.47;;;9.70;99.90;;;;;;5050154;28;21338;-70
2024/03/01 09:07:08;;;;;;;35.90;20.23;;;9.60;99.90;;;;;;5069741;28;20478;-71
2024/03/01 09:09:39;;;;;;;36.60;21.17;;;9.50;99.90;;;;;;5069222;28;20588;-71
2024/03/01 09:12:22;;;;;;;35.40;20.20;;;9.40;99.90;;;;;;5069148;28;20973;-71
2024/03/01 09:14:59;;;;;;;41.03;19.07;;;9.50;99.90;;;;;;5059882;28;20457;-71
2024/03/01 09:17:28;;;;;;;33.50;20.23;;;9.60;99.90;;;;;;5059218;28;20539;-70
2024/03/01 09:19:56;;;;;;;35.53;19.97;;;9.60;99.90;;;;;;5068564;28;20439;-71
2024/03/01 09:22:24;;;;;;;35.00;19.17;;;9.70;99.90;;;;;;5065158;28;20452;-71
2024/03/01 09:24:51;;;;;;;33.47;18.77;;;9.60;99.90;;;;;;5068864;28;20449;-71
2024/03/01 09:27:31;;;;;;;34.43;19.83;;;9.80;99.90;;;;;;5068958;28;21036;-70
2024/03/01 09:30:01;;;;;;;40.73;20.73;;;9.70;99.90;;;;;;5065520;28;20508;-71
2024/03/01 09:32:32;;;;;;;34.27;19.80;;;9.70;99.90;;;;;;5048878;28;20846;-70
2024/03/01 09:35:01;;;;;;;34.57;20.80;;;9.70;99.90;;;;;;5047198;28;20498;-71
2024/03/01 09:37:29;;;;;;;33.27;19.07;;;9.80;99.90;;;;;;5051947;28;20476;-71
2024/03/01 09:39:59;;;;;;;33.30;18.63;;;9.90;99.90;;;;;;5068124;28;20448;-70
2024/03/01 09:42:49;;;;;;;36.43;19.77;;;10.00;99.90;;;;;;5068288;28;20479;-70
2024/03/01 09:45:40;;;;;;;36.87;20.63;;;10.10;99.90;;;;;;5067559;28;20449;-70
2024/03/01 09:48:15;;;;;;;33.33;19.63;;;10.20;99.90;;;;;;5048899;28;20524;-72
2024/03/01 09:50:57;;;;;;;32.93;20.13;;;10.20;99.90;;;;;;5048835;28;20440;-72
2024/03/01 09:53:42;;;;;;;34.07;20.50;;;10.30;99.90;;;;;;5050071;28;20444;-72
2024/03/01 09:56:23;;;;;;;35.20;20.03;;;10.40;99.90;;;;;;5064913;28;20494;-71
2024/03/01 09:59:03;;;;;;;33.97;19.30;;;10.40;99.90;;;;;;5062296;28;20446;-71
2024/03/01 10:01:36;;;;;;;37.23;20.87;;;10.40;99.90;;;;;;5067180;28;20449;-70
2024/03/01 10:04:17;;;;;;;36.20;22.57;;;10.40;99.90;;;;;;5048303;28;20451;-71
2024/03/01 10:07:02;;;;;;;35.20;20.47;;;10.40;99.90;;;;;;5048604;28;20470;-72
2024/03/01 10:10:00;;;;;;;43.27;21.37;;;10.20;99.90;;;;;;5048491;28;20494;-71
2024/03/01 10:12:39;;;;;;;37.87;21.70;;;10.10;99.90;;;;;;5057197;28;20458;-71
2024/03/01 10:15:20;;;;;;;33.33;20.53;;;10.00;99.90;;;;;;5068332;28;20869;-71
2024/03/01 10:17:59;;;;;;;33.30;20.47;;;10.10;99.90;;;;;;5067866;28;20484;-72
2024/03/01 10:20:35;;;;;;;30.90;19.07;;;10.10;99.90;;;;;;5068131;28;20453;-71
2024/03/01 10:23:21;;;;;;;32.83;18.60;;;10.30;99.90;;;;;;5064765;28;20529;-70
2024/03/01 10:25:59;;;;;;;29.10;17.50;;;10.30;99.90;;;;;;5047425;28;20546;-71
2024/03/01 10:28:50;;;;;;;30.40;16.70;;;10.30;99.90;;;;;;5047033;28;20488;-72
2024/03/01 10:31:36;;;;;;;28.37;18.47;;;10.20;99.90;;;;;;5046850;28;20443;-72
2024/03/01 10:34:11;;;;;;;31.33;18.40;;;10.10;99.90;;;;;;5056368;28;20454;-71
2024/03/01 10:36:44;;;;;;;27.83;16.33;;;10.20;99.90;;;;;;5059698;28;20431;-71
2024/03/01 10:39:17;;;;;;;30.17;17.07;;;10.20;99.90;;;;;;5047127;28;20843;-72
2024/03/01 10:41:55;;;;;;;30.47;16.97;;;10.30;99.90;;;;;;5047127;28;20545;-72
2024/03/01 10:44:34;;;;;;;25.50;15.30;;;10.50;99.90;;;;;;5056067;28;20450;-72
2024/03/01 10:47:13;;;;;;;22.87;14.80;;;10.50;99.90;;;;;;5059208;28;20863;-72
2024/03/01 10:50:01;;;;;;;25.17;15.17;;;10.50;99.90;;;;;;5063407;28;20487;-71
2024/03/01 10:52:34;;;;;;;24.37;14.60;;;10.60;99.90;;;;;;5061431;28;20441;-72
2024/03/01 10:55:05;;;;;;;22.77;13.43;;;10.80;99.90;;;;;;5059439;28;20566;-72
2024/03/01 10:57:38;;;;;;;23.67;13.93;;;10.90;99.90;;;;;;5057614;28;20465;-72
2024/03/01 11:00:12;;;;;;;22.60;12.70;;;11.00;99.90;;;;;;5061243;28;20830;-71
2024/03/01 11:02:51;;;;;;;21.93;12.03;;;11.10;99.90;;;;;;5062163;28;20435;-72
2024/03/01 11:05:28;;;;;;;20.70;12.57;;;11.00;99.90;;;;;;5064343;28;20545;-71
2024/03/01 11:08:04;;;;;;;21.77;11.70;;;10.90;99.90;;;;;;5059923;28;20457;-72
2024/03/01 11:10:41;;;;;;;18.97;11.03;;;11.00;99.90;;;;;;5058882;28;20485;-71
2024/03/01 11:13:13;;;;;;;19.33;11.10;;;11.20;99.90;;;;;;5060923;28;20968;-72
2024/03/01 11:15:42;;;;;;;18.73;10.43;;;11.30;99.90;;;;;;5060445;28;20496;-71
2024/03/01 11:18:15;;;;;;;22.67;12.00;;;11.40;99.90;;;;;;5061188;28;20466;-72
2024/03/01 11:20:47;;;;;;;17.80;9.50;;;11.60;99.90;;;;;;5062155;28;20449;-73
2024/03/01 11:23:21;;;;;;;16.93;10.10;;;11.70;99.90;;;;;;5063311;28;20446;-73
2024/03/01 11:26:02;;;;;;;16.83;9.33;;;12.00;99.90;;;;;;5064123;28;20452;-74
2024/03/01 11:28:33;;;;;;;20.57;10.70;;;12.00;99.90;;;;;;5056983;28;21052;-73
2024/03/01 11:31:06;;;;;;;17.23;10.00;;;12.20;99.90;;;;;;5047460;28;20517;-72
2024/03/01 11:33:40;;;;;;;18.53;9.97;;;12.40;99.90;;;;;;5050225;28;20451;-72
2024/03/01 11:36:28;;;;;;;19.33;9.60;;;12.60;99.90;;;;;;5048594;28;20820;-73
2024/03/01 11:39:00;;;;;;;17.57;8.77;;;12.80;99.90;;;;;;5053048;28;20460;-72
2024/03/01 11:41:42;;;;;;;18.47;9.17;;;13.20;99.90;;;;;;5047218;28;20966;-72
2024/03/01 11:44:23;;;;;;;15.33;7.97;;;13.70;99.90;;;;;;5051964;28;20459;-72
2024/03/01 11:47:06;;;;;;;15.00;7.73;;;13.90;99.90;;;;;;5052119;28;20494;-71
2024/03/01 11:49:52;;;;;;;15.90;8.10;;;14.30;99.90;;;;;;5058635;28;20488;-72
2024/03/01 11:52:40;;;;;;;19.63;8.27;;;13.90;99.90;;;;;;5063146;28;20441;-70
2024/03/01 11:55:19;;;;;;;14.20;7.67;;;14.30;99.90;;;;;;5066295;28;20446;-71
2024/03/01 11:57:57;;;;;;;15.13;8.33;;;14.80;99.90;;;;;;5069064;28;20629;-71
2024/03/01 12:00:41;;;;;;;13.10;7.27;;;15.40;99.90;;;;;;5051145;28;20443;-71
2024/03/01 12:03:33;;;;;;;15.40;8.10;;;16.10;99.90;;;;;;5063884;28;20953;-71
2024/03/01 12:06:10;;;;;;;14.70;7.47;;;16.20;99.90;;;;;;5069030;28;20511;-72
2024/03/01 12:08:47;;;;;;;15.27;7.50;;;16.60;99.90;;;;;;5067723;28;20458;-71
2024/03/01 12:11:28;;;;;;;15.60;8.10;;;16.40;99.90;;;;;;5066951;28;20549;-71
2024/03/01 12:13:59;;;;;;;15.60;8.17;;;15.90;99.90;;;;;;5062944;28;20468;-72
2024/03/01 12:16:36;;;;;;;15.60;7.83;;;15.30;99.90;;;;;;5061573;28;20434;-72
2024/03/01 12:19:13;;;;;;;14.00;7.27;;;15.10;99.90;;;;;;5063331;28;20452;-72
2024/03/01 12:21:56;;;;;;;15.87;8.73;;;14.70;99.90;;;;;;5065847;28;20535;-72
2024/03/01 12:24:31;;;;;;;14.70;7.70;;;14.20;99.90;;;;;;5065816;28;20492;-73
2024/03/01 12:27:10;;;;;;;15.37;7.80;;;13.90;99.90;;;;;;5064840;28;20481;-74
2024/03/01 12:29:52;;;;;;;14.73;7.70;;;13.70;99.90;;;;;;5064396;28;20513;-71
2024/03/01 12:32:33;;;;;;;13.53;6.97;;;13.60;99.90;;;;;;5063002;28;20435;-71
2024/03/01 12:35:20;;;;;;;15.73;8.00;;;13.20;99.90;;;;;;5059937;28;20970;-72
2024/03/01 12:38:03;;;;;;;14.40;7.80;;;13.00;99.90;;;;;;5066184;28;20447;-69
2024/03/01 12:40:38;;;;;;;18.27;7.47;;;12.80;99.90;;;;;;5058748;28;20431;-71
2024/03/01 12:43:20;;;;;;;17.37;8.40;;;12.30;99.90;;;;;;5065139;28;20489;-69
2024/03/01 12:46:27;;;;;;;16.93;7.97;;;12.10;99.90;;;;;;5066508;28;20435;-71
2024/03/01 12:49:11;;;;;;;14.37;7.03;;;11.90;99.90;;;;;;5066944;28;20445;-68
2024/03/01 12:51:51;;;;;;;14.43;8.00;;;11.70;99.90;;;;;;5066044;28;20563;-69
2024/03/01 12:54:26;;;;;;;15.43;8.53;;;11.30;99.90;;;;;;5067081;28;20432;-70
2024/03/01 12:57:04;;;;;;;16.30;8.13;;;11.00;99.90;;;;;;5067564;28;20984;-69